Flight Track Log - Related Links

Times and Time Zones

All times are in EDT time to prevent confusion due to time zone crossing. See the AAY1029 flight status page for this flight to view local times or setup timezone preferences in your user account.

Time Position Orientation Groundspeed Altitude Reporting Facility
EDT Latitude Longitude Course Direction KTS MPH feet Rate Location/Type
Sat 02:35:29 PM 37.7264 -122.2525 309° West 163 188 1,000  Level Oakland Center
Sat 02:36:30 PM 37.7636 -122.3114 309° West 223 257 2,500 2,000 Climbing Oakland Center
Sat 02:37:32 PM 37.8189 -122.3711 320° Northwest 264 304 5,100 2,634 Climbing Oakland Center
Sat 02:38:33 PM 37.8858 -122.3161 33° Northeast 277 319 7,900 2,439 Climbing Oakland Center
Sat 02:39:35 PM 37.9264 -122.2339 58° Northeast 277 319 10,100 1,805 Climbing Oakland Center
Sat 02:40:36 PM 38.0097 -122.2056 15° North 337 388 11,600 1,854 Climbing Oakland Center
Sat 02:41:38 PM 38.1100 -122.1997 North 361 415 13,900 2,293 Climbing Oakland Center
Sat 02:42:39 PM 38.2131 -122.2044 358° North 371 427 16,300 2,049 Climbing Oakland Center
Sat 02:43:41 PM 38.3186 -122.2022 North 380 437 18,100 1,659 Climbing Oakland Center
Sat 02:44:42 PM 38.4286 -122.2081 358° North 394 453 19,700 1,902 Climbing Oakland Center
Sat 02:45:44 PM 38.5636 -122.2086 360° North 405 466 22,000 1,756 Climbing Oakland Center
Sat 02:46:45 PM 38.6786 -122.2100 359° North 412 474 23,300 1,415 Climbing Oakland Center
Sat 02:47:47 PM 38.7958 -122.2122 359° North 422 486 24,900 1,317 Climbing Oakland Center
Sat 02:48:48 PM 38.9172 -122.2144 359° North 429 494 26,000 1,171 Climbing Oakland Center
Sat 02:49:50 PM 39.0411 -122.2183 359° North 439 505 27,300 1,268 Climbing Oakland Center
Sat 02:50:51 PM 39.1842 -122.2172 360° North 451 519 28,600 1,220 Climbing Oakland Center
Sat 02:51:53 PM 39.2931 -122.2244 357° North 451 519 29,800 683 Climbing Oakland Center
Sat 02:52:54 PM 39.4186 -122.2231 360° North 450 518 30,000 98 Climbing Oakland Center
Sat 02:53:56 PM 39.5575 -122.2294 358° North 447 514 30,000  Level Oakland Center
Sat 02:54:57 PM 39.6817 -122.2233 North 446 513 30,000  Level Oakland Center
Sat 02:55:59 PM 39.8044 -122.2297 358° North 444 511 30,000  Level Oakland Center
Sat 02:57:00 PM 39.9269 -122.2261 North 442 509 30,000  Level Oakland Center
Sat 02:58:02 PM 40.0736 -122.2272 360° North 444 511 30,000  Level Oakland Center
Sat 02:59:03 PM 40.1919 -122.2278 360° North 446 513 30,000  Level Oakland Center
Sat 03:00:05 PM 40.3125 -122.2281 360° North 445 512 30,000  Level Oakland Center
Sat 03:01:07 PM 40.4344 -122.2294 360° North 444 511 30,000  Level Oakland Center
Sat 03:02:08 PM 40.5558 -122.2325 359° North 439 505 30,000  Level Oakland Center
Sat 03:03:10 PM 40.7031 -122.2319 360° North 439 505 30,000  Level Oakland Center
Sat 03:04:11 PM 40.8233 -122.2336 359° North 435 501 30,000  Level Oakland Center
Sat 03:05:13 PM 40.9444 -122.2325 360° North 435 501 30,000  Level Oakland Center
Sat 03:06:14 PM 41.0644 -122.2322 360° North 432 497 30,000  Level Oakland Center
Sat 03:07:16 PM 41.1861 -122.2367 358° North 437 503 30,000  Level Oakland Center
Sat 03:08:17 PM 41.3067 -122.2369 360° North 435 501 30,000  Level Oakland Center
Sat 03:08:48 PM 41.3781 -122.2356 North 436 502 30,000  Level Seattle Center
Sat 03:09:49 PM 41.4867 -122.2403 358° North 436 502 30,000  Level Seattle Center
Sat 03:10:50 PM 41.6069 -122.2358 North 434 499 30,000  Level Seattle Center
Sat 03:11:51 PM 41.7281 -122.2406 358° North 433 498 30,000  Level Seattle Center
Sat 03:12:52 PM 41.8753 -122.2375 North 438 504 30,000  Level Seattle Center
Sat 03:13:53 PM 41.9981 -122.2406 359° North 437 503 30,000  Level Seattle Center
Sat 03:14:54 PM 42.1208 -122.2378 North 438 504 30,000  Level Seattle Center
Sat 03:15:55 PM 42.2428 -122.2389 360° North 435 501 30,000  Level Seattle Center
Sat 03:16:56 PM 42.3625 -122.2378 360° North 429 494 30,000  Level Seattle Center
Sat 03:17:57 PM 42.4833 -122.2422 358° North 431 496 30,000  Level Seattle Center
Sat 03:18:58 PM 42.6056 -122.2400 North 436 502 30,000  Level Seattle Center
Sat 03:19:59 PM 42.7275 -122.2433 359° North 438 504 30,000  Level Seattle Center
Sat 03:21:00 PM 42.8381 -122.2406 North 441 507 30,000  Level Seattle Center
Sat 03:22:01 PM 42.9592 -122.2472 358° North 446 513 30,000  Level Seattle Center
Sat 03:23:02 PM 43.1069 -122.2411 North 443 510 30,000  Level Seattle Center
Sat 03:24:03 PM 43.2289 -122.2481 358° North 440 506 30,000  Level Seattle Center
Sat 03:25:04 PM 43.3511 -122.2444 North 443 510 30,000  Level Seattle Center
Sat 03:26:05 PM 43.4725 -122.2483 359° North 439 505 30,000  Level Seattle Center
Sat 03:27:06 PM 43.5953 -122.2481 360° North 443 510 30,000  Level Seattle Center
Sat 03:28:07 PM 43.7192 -122.2481 360° North 446 513 30,000  Level Seattle Center
Sat 03:29:08 PM 43.8431 -122.2483 360° North 453 521 30,000  Level Seattle Center
Sat 03:30:09 PM 43.9669 -122.2486 360° North 449 517 30,000  Level Seattle Center
Sat 03:31:10 PM 44.0900 -122.2508 359° North 447 514 30,000  Level Seattle Center
Sat 03:32:11 PM 44.2172 -122.2517 360° North 455 524 30,000  Level Seattle Center
Sat 03:33:12 PM 44.3431 -122.2544 359° North 458 527 30,000  Level Seattle Center
Sat 03:34:13 PM 44.4928 -122.2514 North 453 521 30,000  Level Seattle Center
Sat 03:35:14 PM 44.6197 -122.2567 358° North 456 525 30,000  Level Seattle Center
Sat 03:36:15 PM 44.7450 -122.2536 North 455 524 30,000  Level Seattle Center
Sat 03:37:15 PM 44.8725 -122.2594 358° North 460 529 30,000  Level Seattle Center
Sat 03:38:16 PM 44.9928 -122.2558 North 452 520 30,000  Level Seattle Center
Sat 03:39:17 PM 45.1181 -122.2589 359° North 452 520 30,000  Level Seattle Center
Sat 03:40:18 PM 45.2467 -122.2558 North 462 532 30,000  Level Seattle Center
Sat 03:41:19 PM 45.3717 -122.2622 358° North 455 524 30,000  Level Seattle Center
Sat 03:42:20 PM 45.4972 -122.2586 North 454 522 30,000  Level Seattle Center
Sat 03:43:21 PM 45.6211 -122.2636 358° North 450 518 30,000  Level Seattle Center
Sat 03:44:22 PM 45.7728 -122.2594 North 455 524 30,000  Level Seattle Center
Sat 03:45:24 PM 45.8983 -122.2644 358° North 453 521 30,000  Level Seattle Center
Sat 03:46:24 PM 46.0269 -122.2581 North 463 533 30,000  Level Seattle Center
Sat 03:47:25 PM 46.1536 -122.2661 357° North 458 527 30,000  Level Seattle Center
Sat 03:48:26 PM 46.2903 -122.2619 North 452 520 30,000  Level Seattle Center
Sat 03:49:27 PM 46.4139 -122.2692 358° North 446 513 30,000  Level Seattle Center
Sat 03:50:28 PM 46.5394 -122.2636 North 451 519 30,000  Level Seattle Center
Sat 03:51:29 PM 46.6653 -122.2692 358° North 452 520 30,000  Level Seattle Center
Sat 03:52:30 PM 46.7878 -122.2678 360° North 444 511 30,000  Level Seattle Center
Sat 03:53:31 PM 46.9097 -122.2706 359° North 440 506 30,000  Level Seattle Center
Sat 03:54:32 PM 47.0267 -122.2650 North 424 488 30,000  Level Seattle Center
Sat 03:55:33 PM 47.1431 -122.2719 358° North 420 483 30,000  Level Seattle Center
Sat 03:56:34 PM 47.2611 -122.2694 North 425 489 30,000 -49 Level Seattle Center
Sat 03:57:35 PM 47.3797 -122.2767 358° North 430 495 29,900 -984 Descending Seattle Center
Sat 03:58:36 PM 47.4908 -122.2700 North 407 468 28,000 -2,132 Descending Seattle Center
Sat 03:59:36 PM 47.6197 -122.2769 358° North 396 456 25,600 -2,231 Descending Seattle Center
Sat 04:00:37 PM 47.7250 -122.2719 North 394 453 23,500 -2,016 Descending Seattle Center
Sat 04:01:38 PM 47.8306 -122.2772 358° North 389 448 21,500 -2,115 Descending Seattle Center
Sat 04:02:39 PM 47.9350 -122.2786 359° North 378 435 19,200 -2,115 Descending Seattle Center
Sat 04:03:40 PM 48.0411 -122.3139 347° North 393 452 17,200 -1,631 Descending Seattle Center
Sat 04:04:22 PM 48.1225 -122.3297 353° North 399 459 16,400 -984 Descending Seattle Center
Sat 04:04:41 PM 48.1494 -122.3389 347° North 396 456 16,200 -1,164 Descending Seattle Center
Sat 04:05:29 PM 48.2439 -122.3758 345° North 394 453 15,100 -1,279 Descending Seattle Center
Sat 04:05:42 PM 48.2556 -122.3781 353° North 392 451 14,900 -2,583 Descending Seattle Center
Sat 04:06:41 PM 48.3758 -122.4031 352° North 384 442 12,000 -2,600 Descending Seattle Center
Sat 04:06:42 PM 48.3608 -122.4011 175° South 383 441 12,300 -1,574 Climbing Seattle Center
Sat 04:07:42 PM 48.4747 -122.4394 347° North 367 422 10,400 -1,770 Descending Seattle Center
Sat 04:07:43 PM 48.4614 -122.4350 168° South 373 429 10,500 -1,300 Climbing Seattle Center
Sat 04:08:42 PM 48.5578 -122.4583 351° North 287 330 9,100 -1,475 Descending Seattle Center
Sat 04:08:44 PM 48.5644 -122.4614 343° North 320 368 9,000 -2,073 Descending Seattle Center
Sat 04:09:37 PM 48.6222 -122.5014 335° Northwest 273 314 7,200 -2,066 Descending Seattle Center
Sat 04:09:45 PM 48.6339 -122.5111 331° Northwest 290 334 6,900 -1,826 Descending Seattle Center
Sat 04:10:46 PM 48.7072 -122.5472 342° North 280 322 5,100 -1,426 Descending Seattle Center
Sat 04:11:47 PM 48.7747 -122.5850 340° North 270 311 4,000 -738 Descending Seattle Center
Sat 04:12:48 PM 48.8389 -122.6144 343° North 256 295 3,600 -347 Descending Seattle Center
Sat 04:13:48 PM 48.9042 -122.6336 349° North 254 292 3,300 -762 Descending Seattle Center
Sat 04:14:54 PM 48.9167 -122.5500 77° East 190 219 2,000 -762 Descending Vancouver Center
Sat 04:15:54 PM 48.8667 -122.5333 168° South 180 207 1,700 -550 Descending Vancouver Center
Sat 04:16:54 PM 48.8167 -122.5333 180° South 150 173 900 -700 Descending Vancouver Center
Sat 04:17:54 PM 48.7833 -122.5333 180° South 150 173 300 -600 Descending Vancouver Center

Login

Don't have an account? Register now (free) for customized features, flight alerts, and more!